Time;durP1;ratioP1;P1;durP2;ratioP2;P2;SDS_P1;SDS_P2;PMS_P1;PMS_P2;Temp;Humidity;BMP_temperature;BMP_pressure;BME280_temperature;BME280_humidity;BME280_pressure;Samples;Min_cycle;Max_cycle;Signal;HPM_P1;HPM_P2
2021/03/13 00:02:07;;;;;;;0.70;0.57;;;18.80;29.30;;;;;;5024812;28;19972;-66
2021/03/13 00:04:33;;;;;;;6.28;0.77;;;18.80;28.80;;;;;;5024221;28;20091;-65
2021/03/13 00:06:59;;;;;;;;;;;18.70;28.00;;;;;;5024160;28;20593;-66
2021/03/13 00:09:26;;;;;;;8.60;3.67;;;18.40;28.70;;;;;;5024704;28;19962;-66
2021/03/13 00:11:52;;;;;;;;;;;18.40;29.50;;;;;;5024434;28;20110;-65
2021/03/13 00:14:19;;;;;;;4.50;1.00;;;18.40;28.50;;;;;;5020864;28;20008;-66
2021/03/13 00:16:45;;;;;;;;;;;18.40;29.30;;;;;;5023873;28;20074;-66
2021/03/13 00:19:11;;;;;;;7.93;2.78;;;18.30;29.10;;;;;;5025017;28;19997;-65
2021/03/13 00:21:38;;;;;;;1.95;0.70;;;18.30;28.90;;;;;;5040523;28;20070;-65
2021/03/13 00:24:05;;;;;;;2.90;0.75;;;18.30;28.80;;;;;;5018423;28;20133;-66
2021/03/13 00:26:31;;;;;;;13.00;1.10;;;18.30;29.10;;;;;;5023674;28;20098;-65
2021/03/13 00:28:58;;;;;;;3.83;1.00;;;18.00;29.90;;;;;;5024013;28;20070;-65
2021/03/13 00:31:24;;;;;;;;;;;17.90;31.20;;;;;;5024673;28;20066;-64
2021/03/13 00:33:50;;;;;;;8.13;1.17;;;17.80;31.40;;;;;;5022969;28;19962;-66
2021/03/13 00:36:16;;;;;;;;;;;17.80;31.40;;;;;;5021789;28;20078;-66
2021/03/13 00:38:43;;;;;;;9.13;1.10;;;17.70;31.50;;;;;;5024679;28;19961;-66
2021/03/13 00:41:10;;;;;;;3.38;1.05;;;17.80;31.60;;;;;;5025338;28;20537;-66
2021/03/13 00:43:36;;;;;;;;;;;17.70;31.70;;;;;;5024184;28;20184;-67
2021/03/13 00:46:02;;;;;;;8.80;2.03;;;17.80;32.20;;;;;;5024345;28;20000;-65
2021/03/13 00:48:28;;;;;;;;;;;17.70;31.80;;;;;;5023267;28;20520;-65
2021/03/13 00:50:55;;;;;;;5.93;1.13;;;17.60;31.70;;;;;;5023711;28;20621;-66
2021/03/13 00:53:21;;;;;;;1.70;0.70;;;17.60;32.60;;;;;;5028297;28;20070;-64
2021/03/13 00:55:48;;;;;;;;;;;17.70;32.40;;;;;;5029893;28;20075;-66
2021/03/13 00:58:14;;;;;;;2.90;0.80;;;17.60;31.80;;;;;;5030744;28;19957;-64
2021/03/13 01:00:40;;;;;;;;;;;17.50;31.90;;;;;;5045526;28;20070;-65
2021/03/13 01:03:07;;;;;;;2.70;0.70;;;17.40;31.50;;;;;;5026524;28;19985;-63
2021/03/13 01:05:35;;;;;;;6.93;0.90;;;17.30;31.60;;;;;;5025142;28;20066;-65
2021/03/13 01:08:03;;;;;;;4.15;1.20;;;17.40;31.70;;;;;;5021295;28;20128;-64
2021/03/13 01:10:34;;;;;;;4.38;1.27;;;17.30;31.80;;;;;;5021256;28;20150;-65
2021/03/13 01:13:01;;;;;;;5.70;1.98;;;17.30;32.70;;;;;;5022849;28;20637;-64
2021/03/13 01:15:28;;;;;;;5.93;2.42;;;17.20;32.30;;;;;;5016923;28;20078;-64
2021/03/13 01:17:55;;;;;;;7.53;1.73;;;17.20;33.10;;;;;;5020582;28;20077;-64
2021/03/13 01:20:23;;;;;;;;;;;17.20;32.60;;;;;;5025020;28;20128;-63
2021/03/13 01:22:50;;;;;;;3.95;1.70;;;17.10;32.90;;;;;;5024337;28;19974;-64
2021/03/13 01:25:18;;;;;;;11.05;1.30;;;16.90;32.40;;;;;;5025819;28;20097;-65
2021/03/13 01:27:45;;;;;;;8.85;1.10;;;16.80;32.10;;;;;;5020427;28;20079;-64
2021/03/13 01:30:19;;;;;;;4.40;1.40;;;16.70;32.20;;;;;;5023547;28;20070;-64
2021/03/13 01:32:46;;;;;;;9.10;1.35;;;16.70;32.80;;;;;;5026170;28;20073;-64
2021/03/13 01:35:13;;;;;;;7.63;1.35;;;16.60;33.00;;;;;;5025879;28;20088;-65
2021/03/13 01:37:40;;;;;;;3.78;1.30;;;16.60;33.70;;;;;;5025122;28;20077;-63
2021/03/13 01:40:08;;;;;;;;;;;16.60;33.20;;;;;;5029404;28;20083;-63
2021/03/13 01:42:35;;;;;;;7.45;1.63;;;16.50;33.20;;;;;;5027919;28;19980;-63
2021/03/13 01:45:01;;;;;;;7.80;2.03;;;16.40;33.70;;;;;;5024750;28;20081;-64
2021/03/13 01:47:29;;;;;;;6.15;1.55;;;16.30;34.80;;;;;;5025045;28;20090;-62
2021/03/13 01:49:57;;;;;;;9.20;1.95;;;16.30;35.60;;;;;;5028316;28;20088;-64
2021/03/13 01:52:24;;;;;;;6.30;1.00;;;16.30;35.40;;;;;;5024193;28;20173;-63
2021/03/13 01:54:51;;;;;;;10.63;0.93;;;16.10;34.80;;;;;;5026541;28;20588;-63
2021/03/13 01:57:19;;;;;;;4.15;1.08;;;16.00;34.40;;;;;;5023657;28;20188;-63
2021/03/13 01:59:46;;;;;;;11.70;1.20;;;16.00;34.50;;;;;;5027362;28;20066;-64
2021/03/13 02:02:15;;;;;;;8.82;1.02;;;15.90;34.70;;;;;;5029326;28;20089;-64
2021/03/13 02:04:42;;;;;;;7.50;2.00;;;15.80;35.00;;;;;;5026644;28;20078;-63
2021/03/13 02:07:38;;;;;;;6.78;2.80;;;15.70;35.50;;;;;;5026477;28;20097;-65
2021/03/13 02:10:14;;;;;;;5.93;2.30;;;15.70;36.60;;;;;;5026063;28;20089;-66
2021/03/13 02:13:18;;;;;;;4.25;1.55;;;15.70;37.90;;;;;;5024721;28;20084;-62
2021/03/13 02:16:21;;;;;;;6.20;1.65;;;15.70;38.40;;;;;;5025376;28;20553;-64
2021/03/13 02:19:18;;;;;;;7.78;1.40;;;15.60;39.00;;;;;;5029664;28;20139;-64
2021/03/13 02:21:55;;;;;;;5.05;0.82;;;15.50;39.40;;;;;;5028103;28;20078;-62
2021/03/13 02:24:35;;;;;;;5.97;0.93;;;15.50;40.20;;;;;;5027397;28;20193;-64
2021/03/13 02:27:23;;;;;;;4.75;0.90;;;15.20;40.30;;;;;;5029172;28;20321;-65
2021/03/13 02:30:03;;;;;;;3.60;1.08;;;15.20;41.10;;;;;;5028947;28;20066;-63
2021/03/13 02:33:07;;;;;;;7.45;1.23;;;15.10;41.00;;;;;;5025092;28;20074;-64
2021/03/13 02:35:42;;;;;;;4.47;1.40;;;15.10;41.40;;;;;;5023832;28;20074;-65
2021/03/13 02:38:22;;;;;;;9.85;1.23;;;15.00;45.60;;;;;;5026798;28;20070;-65
2021/03/13 02:40:50;;;;;;;7.00;1.20;;;14.90;46.80;;;;;;5024707;28;20066;-65
2021/03/13 02:43:21;;;;;;;2.63;1.13;;;14.70;47.60;;;;;;5025432;28;20121;-64
2021/03/13 02:45:56;;;;;;;6.13;1.33;;;14.70;47.30;;;;;;5027102;28;20099;-65
2021/03/13 02:48:24;;;;;;;3.97;0.90;;;14.60;46.50;;;;;;5028273;28;20184;-65
2021/03/13 02:50:52;;;;;;;4.03;1.98;;;14.50;46.30;;;;;;5027521;28;20078;-65
2021/03/13 02:53:20;;;;;;;9.60;5.00;;;14.50;45.60;;;;;;5026582;28;20082;-63
2021/03/13 02:55:50;;;;;;;2.60;1.20;;;14.50;45.00;;;;;;5026484;28;20600;-60
2021/03/13 02:58:19;;;;;;;16.60;7.45;;;14.40;44.10;;;;;;5026852;28;20078;-65
2021/03/13 03:00:46;;;;;;;7.93;1.27;;;14.40;44.10;;;;;;5025514;28;21465;-64
2021/03/13 03:03:16;;;;;;;3.92;1.10;;;14.40;43.40;;;;;;5027941;28;20434;-65
2021/03/13 03:05:44;;;;;;;3.45;1.40;;;14.40;43.60;;;;;;5027560;28;20411;-63
2021/03/13 03:08:11;;;;;;;3.53;1.20;;;14.40;43.00;;;;;;5025074;28;20081;-63
2021/03/13 03:10:43;;;;;;;6.90;2.30;;;14.40;42.90;;;;;;5027660;28;20109;-64
2021/03/13 03:13:11;;;;;;;4.63;1.30;;;14.40;42.90;;;;;;5023493;28;20089;-65
2021/03/13 03:15:37;;;;;;;3.47;1.30;;;14.50;43.30;;;;;;5023330;28;20443;-65
2021/03/13 03:18:09;;;;;;;4.50;1.05;;;14.50;42.30;;;;;;5025965;28;20116;-64
2021/03/13 03:20:37;;;;;;;5.72;1.48;;;14.50;41.50;;;;;;5022988;28;20181;-65
2021/03/13 03:23:06;;;;;;;5.85;1.35;;;14.50;42.00;;;;;;5027364;28;20543;-64
2021/03/13 03:25:32;;;;;;;5.57;1.45;;;14.40;41.40;;;;;;5025988;28;20085;-65
2021/03/13 03:27:59;;;;;;;;;;;14.40;42.70;;;;;;5024931;28;20070;-66
2021/03/13 03:30:31;;;;;;;6.00;1.63;;;14.40;42.80;;;;;;5024055;28;20000;-63
2021/03/13 03:33:02;;;;;;;6.60;2.20;;;14.30;42.80;;;;;;5023133;28;20072;-66
2021/03/13 03:35:29;;;;;;;5.10;1.30;;;14.30;43.40;;;;;;5024516;28;20078;-68
2021/03/13 03:38:01;;;;;;;5.95;1.52;;;14.20;43.20;;;;;;5021197;28;20100;-67
2021/03/13 03:40:31;;;;;;;3.60;1.17;;;14.30;47.50;;;;;;5023333;28;20526;-66
2021/03/13 03:43:18;;;;;;;3.83;1.70;;;14.30;43.40;;;;;;5026343;28;21479;-68
2021/03/13 03:45:51;;;;;;;5.78;1.60;;;14.30;43.40;;;;;;5021085;28;20504;-65
2021/03/13 03:48:21;;;;;;;5.25;1.52;;;14.30;42.70;;;;;;5021120;28;20100;-65
2021/03/13 03:50:48;;;;;;;4.35;2.20;;;14.30;42.40;;;;;;5041290;28;21102;-66
2021/03/13 03:53:21;;;;;;;5.95;1.65;;;14.30;42.70;;;;;;5026594;28;20078;-67
2021/03/13 03:55:49;;;;;;;8.85;1.73;;;14.20;42.30;;;;;;5038322;28;20081;-65
2021/03/13 03:58:21;;;;;;;5.82;2.40;;;14.20;42.40;;;;;;5024254;28;20078;-66
2021/03/13 04:00:50;;;;;;;6.80;2.85;;;14.10;42.70;;;;;;5025651;28;20570;-67
2021/03/13 04:03:19;;;;;;;7.68;2.90;;;14.10;43.10;;;;;;5026114;28;20129;-67
2021/03/13 04:05:47;;;;;;;9.40;2.50;;;14.10;42.90;;;;;;5025814;28;20518;-66
2021/03/13 04:08:16;;;;;;;9.93;2.60;;;14.00;42.70;;;;;;5025598;28;20082;-63
2021/03/13 04:10:45;;;;;;;7.80;2.45;;;14.00;42.70;;;;;;5026322;28;20077;-65
2021/03/13 04:13:13;;;;;;;8.73;2.45;;;14.00;42.60;;;;;;5026359;28;20604;-65
2021/03/13 04:15:41;;;;;;;9.70;1.80;;;13.90;42.00;;;;;;5025347;28;20073;-66
2021/03/13 04:18:09;;;;;;;4.10;1.80;;;13.90;41.90;;;;;;5027302;28;20748;-65
2021/03/13 04:20:37;;;;;;;3.15;1.70;;;13.90;42.10;;;;;;5024115;28;20082;-65
2021/03/13 04:23:04;;;;;;;9.57;1.38;;;13.90;42.40;;;;;;5027308;28;20086;-66
2021/03/13 04:25:32;;;;;;;6.05;2.25;;;13.90;42.50;;;;;;5024974;28;20070;-63
2021/03/13 04:28:00;;;;;;;4.90;1.90;;;13.90;42.60;;;;;;5025226;28;20093;-65
2021/03/13 04:30:27;;;;;;;5.70;2.20;;;13.80;43.00;;;;;;5025200;28;20220;-64
2021/03/13 04:32:59;;;;;;;4.80;2.08;;;13.80;42.50;;;;;;5040040;28;20543;-65
2021/03/13 04:35:28;;;;;;;10.18;2.17;;;13.80;42.20;;;;;;5024543;28;20075;-64
2021/03/13 04:37:56;;;;;;;7.50;2.30;;;13.80;42.40;;;;;;5022299;28;20471;-65
2021/03/13 04:40:24;;;;;;;7.88;2.38;;;13.70;41.90;;;;;;5040404;28;20188;-64
2021/03/13 04:42:51;;;;;;;14.38;2.42;;;13.70;42.20;;;;;;5023324;28;20133;-63
2021/03/13 04:45:19;;;;;;;7.60;2.03;;;13.70;42.20;;;;;;5024024;28;20076;-66
2021/03/13 04:47:50;;;;;;;4.30;1.73;;;13.70;42.00;;;;;;5024175;28;20085;-67
2021/03/13 04:50:20;;;;;;;7.30;1.30;;;13.60;42.10;;;;;;5041228;28;20070;-65
2021/03/13 04:52:47;;;;;;;5.85;1.63;;;13.60;42.50;;;;;;5024451;28;20097;-65
2021/03/13 04:55:14;;;;;;;2.90;1.45;;;13.60;42.40;;;;;;5024957;28;20078;-64
2021/03/13 04:57:40;;;;;;;4.80;1.00;;;13.50;42.70;;;;;;5039141;28;20071;-64
2021/03/13 05:00:08;;;;;;;;;;;13.50;42.60;;;;;;5023117;28;20078;-65
2021/03/13 05:02:34;;;;;;;;;;;13.50;42.70;;;;;;5025855;28;19958;-63
2021/03/13 05:05:01;;;;;;;7.30;1.50;;;13.40;42.50;;;;;;5025472;28;19995;-63
2021/03/13 05:07:27;;;;;;;5.57;1.00;;;13.40;42.80;;;;;;5028688;28;20069;-63
2021/03/13 05:09:53;;;;;;;;;;;13.40;43.10;;;;;;5025909;28;20135;-64
2021/03/13 05:12:20;;;;;;;6.30;1.48;;;13.40;42.90;;;;;;5028843;28;19970;-65
2021/03/13 05:14:47;;;;;;;5.57;1.40;;;13.40;43.10;;;;;;5026319;28;20522;-67
2021/03/13 05:17:14;;;;;;;3.08;1.40;;;13.40;43.10;;;;;;5024834;28;20192;-65
2021/03/13 05:19:41;;;;;;;4.13;1.52;;;13.40;43.10;;;;;;5023850;28;20096;-65
2021/03/13 05:22:08;;;;;;;;;;;13.30;43.40;;;;;;5025741;28;20081;-64
2021/03/13 05:24:34;;;;;;;5.30;2.05;;;13.20;43.40;;;;;;5021884;28;19985;-64
2021/03/13 05:27:01;;;;;;;;;;;13.20;43.60;;;;;;5026074;28;20440;-63
2021/03/13 05:29:27;;;;;;;3.53;1.65;;;13.20;43.70;;;;;;5020980;28;19958;-65
2021/03/13 05:31:54;;;;;;;5.45;1.40;;;13.20;43.60;;;;;;5022167;28;20070;-65
2021/03/13 05:34:20;;;;;;;10.07;1.50;;;13.20;43.60;;;;;;5022661;28;20089;-65
2021/03/13 05:36:47;;;;;;;;;;;13.10;43.60;;;;;;5022663;28;20078;-62
2021/03/13 05:39:15;;;;;;;3.53;1.50;;;13.10;43.90;;;;;;5025406;28;19957;-65
2021/03/13 05:41:43;;;;;;;4.63;2.20;;;13.10;43.70;;;;;;5019545;28;20082;-64
2021/03/13 05:44:12;;;;;;;2.72;1.83;;;13.00;43.90;;;;;;5024033;28;20113;-63
2021/03/13 05:46:42;;;;;;;3.70;1.60;;;13.00;43.90;;;;;;5023490;28;20120;-68
2021/03/13 05:49:09;;;;;;;7.75;1.83;;;13.00;44.10;;;;;;5022801;28;20073;-66
2021/03/13 05:51:38;;;;;;;10.93;2.38;;;13.00;44.10;;;;;;5021398;28;20123;-64
2021/03/13 05:54:06;;;;;;;5.50;1.70;;;12.90;44.00;;;;;;5022542;28;20079;-65
2021/03/13 05:56:33;;;;;;;5.43;1.40;;;12.90;44.10;;;;;;5019711;28;20074;-63
2021/03/13 05:59:01;;;;;;;4.78;1.17;;;13.00;44.20;;;;;;5018042;28;20070;-64
2021/03/13 06:01:28;;;;;;;8.68;1.70;;;12.90;44.70;;;;;;5020317;28;20077;-66
2021/03/13 06:03:56;;;;;;;13.68;1.88;;;13.00;44.50;;;;;;5020545;28;20168;-66
2021/03/13 06:06:24;;;;;;;9.43;1.58;;;12.90;44.30;;;;;;5018221;28;20078;-64
2021/03/13 06:08:52;;;;;;;7.85;2.00;;;12.90;44.50;;;;;;5020333;28;20074;-66
2021/03/13 06:11:20;;;;;;;7.88;2.38;;;12.80;44.70;;;;;;5022017;28;20429;-65
2021/03/13 06:13:47;;;;;;;4.53;2.33;;;12.80;45.00;;;;;;5021586;28;20094;-65
2021/03/13 06:16:13;;;;;;;4.65;1.67;;;12.70;45.20;;;;;;5019774;28;20082;-64
2021/03/13 06:18:58;;;;;;;;;;;12.70;45.60;;;;;;5022387;28;20473;-64
2021/03/13 06:21:36;;;;;;;9.70;1.00;;;12.70;45.80;;;;;;5022889;28;19973;-63
2021/03/13 06:24:08;;;;;;;2.95;1.20;;;12.70;46.80;;;;;;5021098;28;20152;-66
2021/03/13 06:26:57;;;;;;;10.55;1.23;;;12.60;46.40;;;;;;5022067;28;20081;-65
2021/03/13 06:29:24;;;;;;;5.60;1.30;;;12.60;46.80;;;;;;5023292;28;20074;-62
2021/03/13 06:32:05;;;;;;;4.40;1.20;;;12.60;47.00;;;;;;5023295;28;20070;-63
2021/03/13 06:34:32;;;;;;;6.07;1.60;;;12.60;47.20;;;;;;5020947;28;20077;-64
2021/03/13 06:37:24;;;;;;;5.53;1.80;;;12.60;47.60;;;;;;5021271;28;20475;-64
2021/03/13 06:39:52;;;;;;;5.97;1.60;;;12.60;47.30;;;;;;5019386;28;20078;-63
2021/03/13 06:42:26;;;;;;;6.38;1.52;;;12.50;47.40;;;;;;5020183;28;20074;-63
2021/03/13 06:44:59;;;;;;;3.70;1.42;;;12.40;47.60;;;;;;5018975;28;20116;-63
2021/03/13 06:47:44;;;;;;;3.40;1.17;;;12.40;47.70;;;;;;5022337;28;20108;-63
2021/03/13 06:50:17;;;;;;;4.25;1.08;;;12.50;47.80;;;;;;5021325;28;20067;-65
2021/03/13 06:52:48;;;;;;;2.30;0.73;;;12.50;47.60;;;;;;5021378;28;20131;-59
2021/03/13 06:55:25;;;;;;;5.05;0.90;;;12.50;47.60;;;;;;5023179;28;20101;-63
2021/03/13 06:58:05;;;;;;;1.80;0.63;;;12.50;47.70;;;;;;5022828;28;20074;-61
2021/03/13 07:00:37;;;;;;;6.10;0.88;;;12.50;47.60;;;;;;5025908;28;20546;-62
2021/03/13 07:03:11;;;;;;;2.80;0.93;;;12.50;47.40;;;;;;5016909;28;20098;-63
2021/03/13 07:05:42;;;;;;;1.50;0.90;;;12.40;47.30;;;;;;5022104;28;20074;-63
2021/03/13 07:08:28;;;;;;;4.82;1.10;;;12.50;47.50;;;;;;5019849;28;20523;-62
2021/03/13 07:11:15;;;;;;;3.55;1.00;;;12.50;47.70;;;;;;5038256;28;20070;-62
2021/03/13 07:13:54;;;;;;;3.40;1.27;;;12.40;47.50;;;;;;5017854;28;20197;-63
2021/03/13 07:16:37;;;;;;;10.35;1.30;;;12.30;47.80;;;;;;5020720;28;20074;-64
2021/03/13 07:19:08;;;;;;;3.58;1.27;;;12.30;47.80;;;;;;5025162;28;20526;-62
2021/03/13 07:21:37;;;;;;;3.97;1.40;;;12.30;47.90;;;;;;5036958;28;20131;-62
2021/03/13 07:24:12;;;;;;;7.45;1.48;;;12.40;48.10;;;;;;5019419;28;20105;-64
2021/03/13 07:26:40;;;;;;;4.78;1.40;;;12.30;47.90;;;;;;5021022;28;20513;-64
2021/03/13 07:29:09;;;;;;;5.88;1.60;;;12.30;48.10;;;;;;5021880;28;20082;-62
2021/03/13 07:32:00;;;;;;;6.05;1.48;;;12.30;48.30;;;;;;5024263;28;20078;-65
2021/03/13 07:34:30;;;;;;;1.80;1.17;;;12.30;48.40;;;;;;5023095;28;20171;-62
2021/03/13 07:36:58;;;;;;;3.63;1.67;;;12.30;48.20;;;;;;5026120;28;20430;-64
2021/03/13 07:39:47;;;;;;;5.07;1.98;;;12.20;48.30;;;;;;5021925;28;20078;-64
2021/03/13 07:42:23;;;;;;;5.13;2.28;;;12.20;48.50;;;;;;5024083;28;20546;-64
2021/03/13 07:44:50;;;;;;;9.85;2.03;;;12.20;48.90;;;;;;5021668;28;20086;-66
2021/03/13 07:47:20;;;;;;;8.02;2.08;;;12.20;49.30;;;;;;5023633;28;20582;-63
2021/03/13 07:49:48;;;;;;;3.55;2.03;;;12.20;48.50;;;;;;5024425;28;20382;-65
2021/03/13 07:52:18;;;;;;;9.13;1.83;;;12.20;48.90;;;;;;5022175;28;20077;-63
2021/03/13 07:54:51;;;;;;;3.78;1.90;;;12.20;48.60;;;;;;5022023;28;20160;-63
2021/03/13 07:57:19;;;;;;;3.47;1.73;;;12.20;48.90;;;;;;5020642;28;20090;-63
2021/03/13 07:59:50;;;;;;;4.05;1.80;;;12.10;48.90;;;;;;5025768;28;20153;-63
2021/03/13 08:02:29;;;;;;;6.30;1.55;;;12.00;49.00;;;;;;5023704;28;20120;-63
2021/03/13 08:05:13;;;;;;;5.68;2.30;;;12.10;49.80;;;;;;5038888;28;20082;-63
2021/03/13 08:07:54;;;;;;;4.35;2.50;;;12.00;49.00;;;;;;5021647;28;20146;-63
2021/03/13 08:10:40;;;;;;;10.10;2.88;;;12.10;49.40;;;;;;5020552;28;20082;-63
2021/03/13 08:13:07;;;;;;;7.70;3.22;;;12.00;48.80;;;;;;5023826;28;20100;-63
2021/03/13 08:15:33;;;;;;;12.40;4.95;;;12.00;49.30;;;;;;5022062;28;20494;-61
2021/03/13 08:18:01;;;;;;;12.60;4.60;;;12.00;60.80;;;;;;5021189;28;20540;-63
2021/03/13 08:20:34;;;;;;;15.95;4.35;;;11.90;49.70;;;;;;5022858;28;20093;-64
2021/03/13 08:23:19;;;;;;;8.55;4.25;;;11.90;50.00;;;;;;5023709;28;20094;-63
2021/03/13 08:25:57;;;;;;;9.48;4.50;;;11.90;50.00;;;;;;5022126;28;20179;-62
2021/03/13 08:28:45;;;;;;;16.92;4.53;;;11.90;50.20;;;;;;5022606;28;20065;-64
2021/03/13 08:31:32;;;;;;;13.88;4.30;;;11.90;50.30;;;;;;5023878;28;20070;-63
2021/03/13 08:33:59;;;;;;;14.95;4.15;;;11.70;50.30;;;;;;5024363;28;20073;-63
2021/03/13 08:36:27;;;;;;;;;;;11.80;50.90;;;;;;5040559;28;20074;-64
2021/03/13 08:39:00;;;;;;;6.03;3.33;;;11.80;50.80;;;;;;5020762;28;20023;-63
2021/03/13 08:41:44;;;;;;;4.82;2.72;;;11.80;50.90;;;;;;5019134;28;20154;-63
2021/03/13 08:44:16;;;;;;;8.45;2.90;;;11.80;51.00;;;;;;5019219;28;20102;-61
2021/03/13 08:46:47;;;;;;;4.85;2.17;;;11.70;51.10;;;;;;5022558;28;20106;-63
2021/03/13 08:49:26;;;;;;;5.88;1.85;;;11.60;51.50;;;;;;5024215;28;20070;-62
2021/03/13 08:52:05;;;;;;;5.18;1.77;;;11.70;51.90;;;;;;5021027;28;20078;-63
2021/03/13 08:54:41;;;;;;;4.13;1.40;;;11.60;51.60;;;;;;5025718;28;20140;-62
2021/03/13 08:57:17;;;;;;;3.92;1.50;;;11.60;51.90;;;;;;5024559;28;20076;-64
2021/03/13 08:59:57;;;;;;;1.42;1.30;;;11.50;51.60;;;;;;5023910;28;20081;-63
2021/03/13 09:02:25;;;;;;;3.63;1.40;;;11.50;52.20;;;;;;5023854;28;20074;-63
2021/03/13 09:04:55;;;;;;;7.30;1.65;;;11.40;52.10;;;;;;5023883;28;20086;-63
2021/03/13 09:07:25;;;;;;;2.25;1.40;;;11.40;52.10;;;;;;5022837;28;20070;-63
2021/03/13 09:09:55;;;;;;;3.60;1.20;;;11.40;52.20;;;;;;5020607;28;20419;-63
2021/03/13 09:12:22;;;;;;;3.72;1.60;;;11.30;52.10;;;;;;5024114;28;20079;-62
2021/03/13 09:15:00;;;;;;;4.35;1.58;;;11.30;52.30;;;;;;5023041;28;20066;-64
2021/03/13 09:17:29;;;;;;;9.15;2.58;;;11.10;51.90;;;;;;5024275;28;20078;-63
2021/03/13 09:20:00;;;;;;;6.57;2.90;;;11.10;52.60;;;;;;5041775;28;20080;-61
2021/03/13 09:22:27;;;;;;;5.10;2.75;;;11.10;52.40;;;;;;5026957;28;20069;-62
2021/03/13 09:25:07;;;;;;;6.55;3.25;;;11.00;52.60;;;;;;5040641;28;20093;-63
2021/03/13 09:27:38;;;;;;;10.43;4.43;;;11.00;52.60;;;;;;5023234;28;20069;-63
2021/03/13 09:30:09;;;;;;;8.88;3.05;;;11.00;52.40;;;;;;5023567;28;20074;-64
2021/03/13 09:32:44;;;;;;;4.18;2.83;;;11.00;52.40;;;;;;5022642;28;20098;-63
2021/03/13 09:35:11;;;;;;;3.78;2.55;;;11.10;52.20;;;;;;5023313;28;20080;-64
2021/03/13 09:37:41;;;;;;;5.97;3.55;;;11.00;52.70;;;;;;5025845;28;20070;-63
2021/03/13 09:40:11;;;;;;;9.02;4.28;;;10.90;52.30;;;;;;5005119;28;20136;-63
2021/03/13 09:42:38;;;;;;;9.00;5.05;;;11.00;52.60;;;;;;5023753;28;20067;-63
2021/03/13 09:45:08;;;;;;;11.70;7.75;;;10.90;59.50;;;;;;5024302;28;20074;-64
2021/03/13 09:47:40;;;;;;;12.40;6.50;;;11.00;52.20;;;;;;5025148;28;20081;-63
2021/03/13 09:50:12;;;;;;;4.70;2.45;;;10.90;52.70;;;;;;5024299;28;20077;-63
2021/03/13 09:52:40;;;;;;;4.60;2.72;;;11.20;57.20;;;;;;5026553;28;20078;-63
2021/03/13 09:55:11;;;;;;;5.20;2.35;;;10.90;53.00;;;;;;5027786;28;20128;-63
2021/03/13 09:57:40;;;;;;;4.15;2.15;;;11.00;52.70;;;;;;5024720;28;20070;-65
2021/03/13 10:00:10;;;;;;;7.25;2.05;;;11.00;52.80;;;;;;5027987;28;20137;-63
2021/03/13 10:02:38;;;;;;;5.07;2.53;;;10.90;52.70;;;;;;5024451;28;20061;-64
2021/03/13 10:05:06;;;;;;;6.13;2.33;;;11.00;52.80;;;;;;5026530;28;20084;-63
2021/03/13 10:07:41;;;;;;;4.72;2.13;;;10.90;52.80;;;;;;5028913;28;20140;-63
2021/03/13 10:10:09;;;;;;;3.47;1.85;;;10.90;52.70;;;;;;5028107;28;20128;-62
2021/03/13 10:12:42;;;;;;;4.05;1.88;;;10.90;53.00;;;;;;5043047;28;20160;-63
2021/03/13 10:15:15;;;;;;;7.95;1.73;;;11.00;52.80;;;;;;5027686;28;20171;-63
2021/03/13 10:18:01;;;;;;;4.50;2.20;;;11.00;52.80;;;;;;5027114;28;20149;-63
2021/03/13 10:20:35;;;;;;;6.20;2.90;;;11.00;53.30;;;;;;5025994;28;20077;-64
2021/03/13 10:23:10;;;;;;;5.25;2.65;;;11.00;53.80;;;;;;5028113;28;20431;-62
2021/03/13 10:25:38;;;;;;;5.95;3.10;;;10.90;53.70;;;;;;5027244;28;20066;-63
2021/03/13 10:28:13;;;;;;;7.93;3.40;;;10.90;54.10;;;;;;5009189;28;20102;-63
2021/03/13 10:30:42;;;;;;;9.10;4.60;;;10.90;54.40;;;;;;5024775;28;20085;-62
2021/03/13 10:33:10;;;;;;;6.22;3.10;;;10.90;54.40;;;;;;5040676;28;20070;-64
2021/03/13 10:35:37;;;;;;;13.38;7.50;;;10.80;54.70;;;;;;5027530;28;20096;-62
2021/03/13 10:38:08;;;;;;;8.27;4.07;;;10.80;54.80;;;;;;5024456;28;20423;-62
2021/03/13 10:40:46;;;;;;;5.10;2.35;;;10.80;55.00;;;;;;5025109;28;20085;-63
2021/03/13 10:43:23;;;;;;;5.15;1.98;;;10.80;54.90;;;;;;5026829;28;20081;-63
2021/03/13 10:45:56;;;;;;;5.60;2.47;;;10.80;54.70;;;;;;5025898;28;21718;-61
2021/03/13 10:48:24;;;;;;;4.35;2.10;;;10.70;54.50;;;;;;5024095;28;20426;-64
2021/03/13 10:50:51;;;;;;;6.53;2.30;;;10.70;54.80;;;;;;5024675;28;20085;-63
2021/03/13 10:53:40;;;;;;;3.15;1.85;;;10.60;55.00;;;;;;5044280;28;20070;-63
2021/03/13 10:56:09;;;;;;;8.02;2.30;;;10.50;55.20;;;;;;5028803;28;20081;-64
2021/03/13 10:58:37;;;;;;;5.15;2.10;;;10.60;55.20;;;;;;5025960;28;20074;-63
2021/03/13 11:01:06;;;;;;;5.32;2.53;;;10.60;54.70;;;;;;5027529;28;20078;-62
2021/03/13 11:03:34;;;;;;;9.15;4.13;;;10.60;54.40;;;;;;5024151;28;20117;-64
2021/03/13 11:06:01;;;;;;;13.07;5.70;;;10.60;54.60;;;;;;5024060;28;20199;-64
2021/03/13 11:08:30;;;;;;;15.98;6.63;;;10.70;55.30;;;;;;5025637;28;20109;-63
2021/03/13 11:10:58;;;;;;;12.55;5.82;;;10.60;54.50;;;;;;5027485;28;20515;-62
2021/03/13 11:13:25;;;;;;;11.55;5.75;;;10.70;54.60;;;;;;5026068;28;20532;-64
2021/03/13 11:15:52;;;;;;;13.30;5.07;;;10.80;55.30;;;;;;5025305;28;20104;-63
2021/03/13 11:18:19;;;;;;;7.35;4.03;;;10.80;54.80;;;;;;5027749;28;20074;-64
2021/03/13 11:20:47;;;;;;;6.75;3.33;;;10.80;54.30;;;;;;5024198;28;20070;-62
2021/03/13 11:23:15;;;;;;;8.68;4.07;;;10.80;55.20;;;;;;5023568;28;20111;-63
2021/03/13 11:25:42;;;;;;;9.18;4.15;;;10.80;55.30;;;;;;5023464;28;20078;-64
2021/03/13 11:28:09;;;;;;;11.60;3.88;;;10.90;55.10;;;;;;5026497;28;20081;-65
2021/03/13 11:30:36;;;;;;;8.57;3.83;;;10.80;55.20;;;;;;5041286;28;20077;-62
2021/03/13 11:33:04;;;;;;;8.82;4.03;;;10.80;55.40;;;;;;5022530;28;20076;-63
2021/03/13 11:35:31;;;;;;;11.40;4.93;;;10.80;55.70;;;;;;5024533;28;20523;-63
2021/03/13 11:37:57;;;;;;;11.85;5.35;;;10.80;55.40;;;;;;5024066;28;20085;-63
2021/03/13 11:40:24;;;;;;;;;;;10.80;55.20;;;;;;5025622;28;20076;-63
2021/03/13 11:42:55;;;;;;;7.97;5.13;;;10.80;55.80;;;;;;5026242;28;19961;-63
2021/03/13 11:45:24;;;;;;;13.55;5.85;;;10.80;56.20;;;;;;5023664;28;20121;-62
2021/03/13 11:47:56;;;;;;;10.75;5.55;;;10.80;56.30;;;;;;5023820;28;20456;-63
2021/03/13 11:50:25;;;;;;;10.50;5.95;;;10.70;56.80;;;;;;5023722;28;20089;-64
2021/03/13 11:52:55;;;;;;;16.17;5.75;;;10.80;56.60;;;;;;5044900;28;20162;-63
2021/03/13 11:55:22;;;;;;;12.98;5.65;;;10.80;56.70;;;;;;5027444;28;20074;-63
2021/03/13 11:57:48;;;;;;;9.60;5.35;;;10.70;56.40;;;;;;5024011;28;20176;-63
2021/03/13 12:00:15;;;;;;;;;;;10.80;56.20;;;;;;5028078;28;20087;-63
2021/03/13 12:02:41;;;;;;;8.25;4.50;;;10.80;56.20;;;;;;5023121;28;19980;-63
2021/03/13 12:05:09;;;;;;;9.90;4.30;;;10.80;56.40;;;;;;5038310;28;20474;-63
2021/03/13 12:07:37;;;;;;;9.48;4.30;;;10.80;55.70;;;;;;5027681;28;20065;-62
2021/03/13 12:10:05;;;;;;;9.05;3.97;;;10.80;54.70;;;;;;5021640;28;20123;-62
2021/03/13 12:12:32;;;;;;;10.77;4.03;;;10.90;54.10;;;;;;5024533;28;20073;-63
2021/03/13 12:14:59;;;;;;;9.13;4.18;;;10.90;53.60;;;;;;5023518;28;20070;-62
2021/03/13 12:17:25;;;;;;;7.10;2.92;;;11.00;54.00;;;;;;5024686;28;20078;-63
2021/03/13 12:19:52;;;;;;;6.95;2.83;;;11.00;53.20;;;;;;5026812;28;20124;-64
2021/03/13 12:22:20;;;;;;;;;;;11.00;53.10;;;;;;5024275;28;20077;-63
2021/03/13 12:24:46;;;;;;;8.88;2.08;;;11.10;52.60;;;;;;5022025;28;19978;-63
2021/03/13 12:27:13;;;;;;;;;;;11.10;52.30;;;;;;5023627;28;20185;-63
2021/03/13 12:29:39;;;;;;;5.00;1.08;;;11.20;51.60;;;;;;5025509;28;19958;-62
2021/03/13 12:32:05;;;;;;;;;;;11.30;51.00;;;;;;5022241;28;20076;-62
2021/03/13 12:34:32;;;;;;;3.78;0.90;;;11.40;50.70;;;;;;5025204;28;20119;-62
2021/03/13 12:36:58;;;;;;;;;;;11.60;50.80;;;;;;5023940;28;20486;-62
2021/03/13 12:39:25;;;;;;;4.65;0.90;;;11.70;49.80;;;;;;5040044;28;20340;-62
2021/03/13 12:41:51;;;;;;;;;;;11.70;49.70;;;;;;5025008;28;20429;-62
2021/03/13 12:44:17;;;;;;;3.47;1.05;;;11.80;49.50;;;;;;5039069;28;19978;-63
2021/03/13 12:46:46;;;;;;;2.75;0.80;;;11.80;49.70;;;;;;5022486;28;20652;-63
2021/03/13 12:49:13;;;;;;;7.20;1.30;;;11.80;49.40;;;;;;5020008;28;20177;-63
2021/03/13 12:51:40;;;;;;;1.50;1.02;;;11.90;49.60;;;;;;5021270;28;20069;-64
2021/03/13 12:54:06;;;;;;;;;;;11.90;49.50;;;;;;5040159;28;20077;-64
2021/03/13 12:56:33;;;;;;;6.90;1.35;;;11.90;49.10;;;;;;5024288;28;19957;-63
2021/03/13 12:58:59;;;;;;;;;;;11.90;49.50;;;;;;5022884;28;20451;-64
2021/03/13 13:01:26;;;;;;;3.03;1.17;;;12.00;49.80;;;;;;5024082;28;19964;-63
2021/03/13 13:04:00;;;;;;;3.53;1.30;;;11.90;49.70;;;;;;5024962;28;20152;-63
2021/03/13 13:06:27;;;;;;;5.72;1.30;;;12.00;50.30;;;;;;5024560;28;20062;-63
2021/03/13 13:08:54;;;;;;;3.22;1.25;;;12.00;50.30;;;;;;5039684;28;20540;-63
2021/03/13 13:11:23;;;;;;;6.88;1.52;;;11.90;50.80;;;;;;5024004;28;20074;-63